Moscow, Tennessee
Current Conditions -  °F | °C
As of 10:15 PM on Wednesday 17 Dec 2014 (Local Time) from KOLV Reporting Station
Overcast Overcast  
Wind Chill: 31°   Ceiling: 8500
Heat Index: 37°   Visibility: 7mi
Dew Point: 34°   Wind: 8mph
Humidity: 87%   Direction: 50°NE
Pressure: 30.24"   Gusts: NA
Location:  35.06°N, 89.4°W
Report Text: KOLV 180415Z AUTO 05007KT 7SM OVC085 03/01 A3024 RMK A01 P000
Loading
Personal Weather Stations






























Interactive Weather Map New forecast layout! Learn more

10-Day Weather Forecast

Advertisements
Track Severe Weather on mobile